Terminal Aerodrome Forecast
Issued by NWS Chicago, IL

Home | Current Version | Previous Version | Text Only | Print | Product List | Glossary Off
Versions: 1 2 3 4 5 6 7 8 9 10 11 12 13 14 15 16 17 18 19 20 21 22 23 24 25 26 27 28 29 30 31 32

000
FTUS43 KLOT 210200 AAB
TAFRFD
TAF AMD
KRFD 210237Z 2103/2124 22007KT P6SM FEW040
     FM210400 29013G20KT P6SM -SHRA VCTS BKN040 OVC080CB
     FM210600 30012KT P6SM SCT030 BKN060
     FM211200 31013G18KT P6SM BKN020 OVC050
     FM211600 33015G24KT P6SM VCSH BKN030
     FM212000 35011G17KT P6SM SCT035=

USA.gov is the U.S. government's official web portal to all federal, state and local government web resources and services.